Language selection

Features

My Weather Profile Weather Topics  | 

South-central Hudson - western half: Past 24 Hour Conditions

 

Kuujjuarapik Airport

05:00 PM EST 12 December 2019
Disclaimer

This table is a summary of hourly weather conditions for the past 24 hours.
Please note that these observations might not always be representative of weather conditions over their associated marine area.

Date / Time
(EST)
Wind(knots) Conditions Visibility(km) Pressure(kPa) Air tempC) Relative humidity(%) Dew pointC) Wind Chill
12 December 2019
17:00 S 6 Mostly Cloudy 16 102.3 -21 78 -24 -28
16:00 S 9 gust 17 Mostly Cloudy 16 102.2 -20 75 -23 -29
15:00 SSW 10 gust 19 Cloudy 16 102.2 -19 75 -22 -28
14:00 SSW 13 gust 23 Haze 4 102.1 -18 75 -21 -29
13:00 SSW 12 gust 23 Haze 4 102.0 -18 74 -21 -28
12:00 SSW 15 gust 25 Light Snow 2 101.9 -17 77 -20 -28
11:00 SSW 16 gust 24 Heavy Snow 0.4 101.8 -17 84 -19 -28
10:00 SSW 13 gust 21 Heavy Snow 0.2 101.7 -17 84 -19 -27
9:00 W 14 gust 30 Snow 0.6 101.6 -13 66 -18 -23
8:00 W 24 gust 30 Blowing Snow 0.4 101.5 -13 79 -16 -25
7:00 SSW 13 gust 23 Light Snow 1 101.4 -17 81 -20 -28
6:00 S 17 gust 25 Snow 0.6 101.3 -19 82 -22 -32
5:00 ESE 14 Light Snow 5 101.4 -22 75 -25 -34
4:00 SSE 10 gust 18 Light Snow 6 101.5 -23 75 -27 -34
3:00 SE 10 gust 15 Clear 16 101.5 -25 74 -29 -36
2:00 SE 10 gust 17 Clear 16 101.5 -25 75 -29 -37
1:00 SE 11 Clear 16 101.5 -25 75 -29 -38
0:00 SE 8 Clear 16 101.5 -25 75 -29 -35
11 December 2019
23:00 SE 9 Clear 16 101.5 -25 74 -28 -36
22:00 SSE 8 Partly Cloudy 16 101.4 -24 74 -28 -34
21:00 SE 10 Cloudy 16 101.4 -23 74 -27 -34
20:00 SSE 9 Cloudy 16 101.4 -23 75 -27 -34
19:00 SSE 8 Clear 16 101.4 -23 75 -27 -33
18:00 S 5 Clear 16 101.4 -22 75 -26 -29
17:00 SSE 9 Mainly Clear 16 101.3 -21 75 -25 -31

Zoom-in to make a selection

Map of Hudson - Hudson Bay marine weather areas Arviat Airport Baker Lake Airport Chesterfield Inlet Airport Coral Harbour Airport Rankin Inlet Airport Sanikiluaq Airport Whale Cove Airport Cape Dorset Airport Iqaluit Airport Wager Bay Kimmirut Airport Churchill Airport Fort Severn Airport Peawanuck Airport Moosonee Airport Eastmain Airport La Grande Rivière Airport Waskaganish Airport Wemindji Airport Akulivik Airport Inukjuak Airport Ivujivik Airport Kuujjuarapik Airport Puvirnituq Airport Umiujaq Airport Aupaluk Airport Kangiqsujuaq Airport Kangirsuk Airport Kangiqsualujjuaq Airport Kuujjuaq Airport Quaqtaq Airport Salluit Airport Tasiujaq Airport Cape Kakkiviak
Legend:
buoy Buoy
land station Land Station

Hudson - Hudson Bay Area

Another Region

What we are doing

Date modified: